Lac Du Bonnet, Canada
Current Conditions -  °F | °C
As of 3:00 AM on Sunday 26 Oct 2014 (Local Time) from CYWG Reporting Station
Clear Clear  
Wind Chill: 29°   Ceiling: Unl
Heat Index: 34°   Visibility: 15mi
Dew Point: 28°   Wind: 6mph
Humidity: 81%   Direction: 100°E
Pressure: 29.95"   Gusts: NA
Location:  50.27°N, 96.05°W
Report Text: CYWG 260800Z 10005KT 15SM SKC 01/M02 A2995 RMK SLP150
Loading
Personal Weather Stations






























Interactive Weather Map
Tropical Storm Tracking
New forecast layout! Learn more

10-Day Weather Forecast

Advertisements
Track Severe Weather on mobile